Terminal Aerodrome Forecast
Issued by NWS

Home | Current Version | Previous Version | Text Only | Print | Product List | Glossary On
Versions: 1 2 3 4 5 6 7 8 9 10 11 12 13 14 15 16 17 18 19 20 21 22 23 24
000
FTUS41 KGYX 011120
TAFLEB
TAF
KLEB 011120Z 0112/0212 00000KT P6SM -SHRA OVC015
     FM011400 36006KT P6SM -SHRA OVC025
     FM012200 VRB03KT P6SM SCT007 OVC015=

USA.gov is the U.S. government's official web portal to all federal, state and local government web resources and services.